createdAt,value
2019-05-30T00:00:42.287Z,5.78
2019-05-30T00:03:12.303Z,6.70
2019-05-30T00:05:42.299Z,5.35
2019-05-30T00:08:12.395Z,5.50
2019-05-30T00:10:42.402Z,6.15
2019-05-30T00:13:12.423Z,6.25
2019-05-30T00:15:42.927Z,6.85
2019-05-30T00:18:12.950Z,7.53
2019-05-30T00:20:43.112Z,6.78
2019-05-30T00:23:13.397Z,7.20
2019-05-30T00:25:43.504Z,7.40
2019-05-30T00:28:13.552Z,8.18
2019-05-30T00:30:43.556Z,9.73
2019-05-30T00:33:13.563Z,6.70
2019-05-30T00:35:43.597Z,8.68
2019-05-30T00:38:13.767Z,8.33
2019-05-30T00:40:43.843Z,12.07
2019-05-30T00:43:13.859Z,6.87
2019-05-30T00:45:43.848Z,7.28
2019-05-30T00:48:13.887Z,7.10
2019-05-30T00:50:43.873Z,7.85
2019-05-30T00:53:13.974Z,7.70
2019-05-30T00:55:44.015Z,9.33
2019-05-30T00:58:14.171Z,9.38
2019-05-30T01:00:44.501Z,9.23
2019-05-30T01:03:14.751Z,7.92
2019-05-30T01:05:45.867Z,9.90
2019-05-30T01:08:15.888Z,7.87
2019-05-30T01:10:45.890Z,6.97
2019-05-30T01:13:15.986Z,8.13
2019-05-30T01:15:46.020Z,7.65
2019-05-30T01:18:16.071Z,8.05
2019-05-30T01:20:46.228Z,11.33
2019-05-30T01:23:16.375Z,7.72
2019-05-30T01:25:46.415Z,9.03
2019-05-30T01:28:16.475Z,8.03
2019-05-30T01:30:58.956Z,9.20
2019-05-30T01:33:18.350Z,9.28
2019-05-30T01:35:48.365Z,7.67
2019-05-30T01:38:18.400Z,8.20
2019-05-30T01:40:48.419Z,7.90
2019-05-30T01:43:18.446Z,7.28
2019-05-30T01:45:48.565Z,7.92
2019-05-30T01:48:19.707Z,10.18
2019-05-30T01:50:50.040Z,9.60
2019-05-30T01:53:21.133Z,11.28
2019-05-30T01:55:51.134Z,9.05
2019-05-30T01:58:22.296Z,9.15
2019-05-30T02:00:52.355Z,11.05
2019-05-30T02:03:22.437Z,11.95
2019-05-30T02:05:52.549Z,9.85
2019-05-30T02:08:22.567Z,11.10
2019-05-30T02:10:52.807Z,9.18
2019-05-30T02:13:22.983Z,7.22
2019-05-30T02:15:53.087Z,8.53
2019-05-30T02:18:23.214Z,10.03
2019-05-30T02:20:53.248Z,9.88
2019-05-30T02:23:23.302Z,9.45
2019-05-30T02:25:53.353Z,12.58
2019-05-30T02:28:23.346Z,9.18
2019-05-30T02:30:53.386Z,9.75
2019-05-30T02:33:23.397Z,11.83
2019-05-30T02:35:53.555Z,10.05
2019-05-30T02:38:24.648Z,7.87
2019-05-30T02:40:54.752Z,9.38
2019-05-30T02:43:24.919Z,8.83
2019-05-30T02:45:54.960Z,11.20
2019-05-30T02:48:24.964Z,10.35
2019-05-30T02:50:54.985Z,9.03
2019-05-30T02:53:24.978Z,9.75
2019-05-30T02:55:55.004Z,9.23
2019-05-30T02:58:25.003Z,9.53
2019-05-30T03:00:55.035Z,9.85
2019-05-30T03:03:25.037Z,9.98
2019-05-30T03:05:55.432Z,9.45
2019-05-30T03:08:25.421Z,12.58
2019-05-30T03:10:57.085Z,9.85
2019-05-30T03:13:27.207Z,9.43
2019-05-30T03:15:57.294Z,10.85
2019-05-30T03:18:27.285Z,8.90
2019-05-30T03:20:57.367Z,10.98
2019-05-30T03:23:27.724Z,9.23
2019-05-30T03:25:57.756Z,15.00
2019-05-30T03:28:28.050Z,12.13
2019-05-30T03:30:59.065Z,10.65
2019-05-30T03:33:39.432Z,9.93
2019-05-30T03:36:04.906Z,10.45
2019-05-30T03:38:33.011Z,16.50
2019-05-30T03:41:04.720Z,10.45
2019-05-30T03:43:34.748Z,11.33
2019-05-30T03:46:08.681Z,10.55
2019-05-30T03:48:41.472Z,11.60
2019-05-30T03:51:15.103Z,10.63
2019-05-30T03:53:45.699Z,12.23
2019-05-30T03:56:19.547Z,9.53
2019-05-30T03:59:00.172Z,12.50
2019-05-30T04:01:36.597Z,11.73
2019-05-30T04:04:16.905Z,11.28
2019-05-30T04:06:51.114Z,10.40
2019-05-30T04:09:25.170Z,11.12
2019-05-30T04:12:21.325Z,10.15
2019-05-30T04:14:54.271Z,10.78
2019-05-30T04:17:24.344Z,9.08
2019-05-30T04:19:54.436Z,12.10
2019-05-30T04:22:24.461Z,13.20
2019-05-30T04:24:54.520Z,9.53
2019-05-30T04:27:24.535Z,8.58
2019-05-30T04:29:54.577Z,9.45
2019-05-30T04:32:24.597Z,9.25
2019-05-30T04:34:54.596Z,12.50
2019-05-30T04:37:24.638Z,10.10
2019-05-30T04:39:54.648Z,8.70
2019-05-30T04:42:24.689Z,8.78
2019-05-30T04:44:54.707Z,10.55
2019-05-30T04:47:24.728Z,10.03
2019-05-30T04:49:54.751Z,10.82
2019-05-30T04:52:25.175Z,8.75
2019-05-30T04:54:56.235Z,9.45
2019-05-30T04:57:27.250Z,9.53
2019-05-30T04:59:57.699Z,14.87
2019-05-30T05:02:27.762Z,8.88
2019-05-30T05:04:57.862Z,9.50
2019-05-30T05:07:27.887Z,10.03
2019-05-30T05:09:57.974Z,9.60
2019-05-30T05:12:28.097Z,7.50
2019-05-30T05:14:58.299Z,10.53
2019-05-30T05:17:28.425Z,9.00
2019-05-30T05:19:58.483Z,8.63
2019-05-30T05:22:28.530Z,7.80
2019-05-30T05:24:58.596Z,8.25
2019-05-30T05:27:28.719Z,6.97
2019-05-30T05:29:58.829Z,9.00
2019-05-30T05:32:29.131Z,6.85
2019-05-30T05:34:59.247Z,7.90
2019-05-30T05:37:29.273Z,7.08
2019-05-30T05:39:59.392Z,7.67
2019-05-30T05:42:30.409Z,7.30
2019-05-30T05:45:01.738Z,7.25
2019-05-30T05:47:31.865Z,6.70
2019-05-30T05:50:01.901Z,6.85
2019-05-30T05:52:33.111Z,7.03
2019-05-30T05:55:03.149Z,8.25
2019-05-30T05:57:33.220Z,7.42
2019-05-30T06:00:03.398Z,8.38
2019-05-30T06:02:34.631Z,7.53
2019-05-30T06:05:05.611Z,10.28
2019-05-30T06:07:35.936Z,12.35
2019-05-30T06:10:06.763Z,8.78
2019-05-30T06:12:36.931Z,9.35
2019-05-30T06:15:07.487Z,8.35
2019-05-30T06:17:37.559Z,10.32
2019-05-30T06:20:07.929Z,9.35
2019-05-30T06:22:38.099Z,7.85
2019-05-30T06:25:08.313Z,8.83
2019-05-30T06:27:38.457Z,9.50
2019-05-30T06:30:10.183Z,9.70
2019-05-30T06:32:41.439Z,7.20
2019-05-30T06:35:11.750Z,9.25
2019-05-30T06:37:41.791Z,7.80
2019-05-30T06:40:12.253Z,9.30
2019-05-30T06:42:42.391Z,9.58
2019-05-30T06:45:13.518Z,8.48
2019-05-30T06:47:43.569Z,9.25
2019-05-30T06:50:13.995Z,7.00
2019-05-30T06:52:44.159Z,7.42
2019-05-30T06:55:14.710Z,6.90
2019-05-30T06:57:44.860Z,8.50
2019-05-30T07:00:16.464Z,6.30
2019-05-30T07:02:46.522Z,7.05
2019-05-30T07:05:17.409Z,9.68
2019-05-30T07:07:48.039Z,5.97
2019-05-30T07:10:18.772Z,6.28
2019-05-30T07:12:48.809Z,6.92
2019-05-30T07:15:19.158Z,8.43
2019-05-30T07:17:49.178Z,7.42
2019-05-30T07:20:19.603Z,6.37
2019-05-30T07:22:49.693Z,6.95
2019-05-30T07:25:19.999Z,6.95
2019-05-30T07:27:50.082Z,6.33
2019-05-30T07:30:23.702Z,5.80
2019-05-30T07:32:53.922Z,6.55
2019-05-30T07:35:24.047Z,7.03
2019-05-30T07:37:54.223Z,6.05
2019-05-30T07:40:24.860Z,5.62
2019-05-30T07:42:54.890Z,8.53
2019-05-30T07:45:25.415Z,5.15
2019-05-30T07:47:55.523Z,5.62
2019-05-30T07:50:26.320Z,4.62
2019-05-30T07:52:56.468Z,5.17
2019-05-30T07:55:26.935Z,6.55
2019-05-30T07:57:57.025Z,5.08
2019-05-30T08:00:27.520Z,6.92
2019-05-30T08:02:57.555Z,5.60
2019-05-30T08:05:28.646Z,6.33
2019-05-30T08:07:59.101Z,7.15
2019-05-30T08:10:29.929Z,5.37
2019-05-30T08:13:00.294Z,5.10
2019-05-30T08:15:33.550Z,5.75
2019-05-30T08:18:03.659Z,6.53
2019-05-30T08:20:33.968Z,6.58
2019-05-30T08:23:05.209Z,5.90
2019-05-30T08:25:36.567Z,6.10
2019-05-30T08:28:06.864Z,5.92
2019-05-30T08:30:36.905Z,5.10
2019-05-30T08:33:07.046Z,5.20
2019-05-30T08:35:47.559Z,6.12
2019-05-30T08:38:08.972Z,9.78
2019-05-30T08:40:39.580Z,5.70
2019-05-30T08:43:09.740Z,6.00
2019-05-30T08:45:40.046Z,6.53
2019-05-30T08:48:11.288Z,5.53
2019-05-30T08:50:44.592Z,6.42
2019-05-30T08:53:13.966Z,8.55
2019-05-30T08:55:44.293Z,5.70
2019-05-30T08:58:14.291Z,4.97
2019-05-30T09:00:44.445Z,6.60
2019-05-30T09:03:14.497Z,7.53
2019-05-30T09:05:59.295Z,5.75
2019-05-30T09:08:16.437Z,6.22
2019-05-30T09:10:46.572Z,5.30
2019-05-30T09:13:16.770Z,6.10
2019-05-30T09:15:47.103Z,5.42
2019-05-30T09:18:17.341Z,7.97
2019-05-30T09:20:47.522Z,8.60
2019-05-30T09:23:17.671Z,6.95
2019-05-30T09:25:49.360Z,6.45
2019-05-30T09:28:20.824Z,6.40
2019-05-30T09:30:50.859Z,5.12
2019-05-30T09:33:21.059Z,7.10
2019-05-30T09:35:51.246Z,6.42
2019-05-30T09:38:21.523Z,5.50
2019-05-30T09:40:51.743Z,5.70
2019-05-30T09:43:25.023Z,5.12
2019-05-30T09:45:55.071Z,5.33
2019-05-30T09:48:25.545Z,6.28
2019-05-30T09:50:55.625Z,5.50
2019-05-30T09:53:25.711Z,6.47
2019-05-30T09:55:55.843Z,6.00
2019-05-30T09:58:25.935Z,9.50
2019-05-30T10:00:56.028Z,7.33
2019-05-30T10:03:26.094Z,5.97
2019-05-30T10:05:56.214Z,5.37
2019-05-30T10:08:26.325Z,6.97
2019-05-30T10:10:56.424Z,7.25
2019-05-30T10:13:26.597Z,6.40
2019-05-30T10:15:56.807Z,5.25
2019-05-30T10:18:26.933Z,5.28
2019-05-30T10:20:57.173Z,5.33
2019-05-30T10:23:27.400Z,5.80
2019-05-30T10:25:57.664Z,5.67
2019-05-30T10:28:27.936Z,5.67
2019-05-30T10:30:59.425Z,7.53
2019-05-30T10:33:29.616Z,6.60
2019-05-30T10:35:59.716Z,5.90
2019-05-30T10:38:29.820Z,5.17
2019-05-30T10:40:59.862Z,7.97
2019-05-30T10:43:29.931Z,6.03
2019-05-30T10:46:01.107Z,10.23
2019-05-30T10:48:31.346Z,6.37
2019-05-30T10:51:01.463Z,6.50
2019-05-30T10:53:31.593Z,5.80
2019-05-30T10:56:01.643Z,6.90
2019-05-30T10:58:31.700Z,5.05
2019-05-30T11:01:01.907Z,6.75
2019-05-30T11:03:32.050Z,5.95
2019-05-30T11:06:39.981Z,7.40
2019-05-30T11:09:10.417Z,6.30
2019-05-30T11:11:40.558Z,6.90
2019-05-30T11:14:10.663Z,11.35
2019-05-30T11:16:41.783Z,8.45
2019-05-30T11:19:12.047Z,6.65
2019-05-30T11:21:42.163Z,6.83
2019-05-30T11:24:12.337Z,10.13
2019-05-30T11:26:42.638Z,5.95
2019-05-30T11:29:12.762Z,5.47
2019-05-30T11:31:42.887Z,7.28
2019-05-30T11:34:14.505Z,5.62
2019-05-30T11:36:44.618Z,5.72
2019-05-30T11:39:14.672Z,6.17
2019-05-30T11:41:46.256Z,6.42
2019-05-30T11:44:16.429Z,9.18
2019-05-30T11:46:47.530Z,7.40
2019-05-30T11:49:17.645Z,6.45
2019-05-30T11:51:47.740Z,4.90
2019-05-30T11:54:17.856Z,4.20
2019-05-30T11:56:48.034Z,4.33
2019-05-30T11:59:18.175Z,3.15
2019-05-30T12:01:48.275Z,3.98
2019-05-30T12:04:18.436Z,4.45
2019-05-30T12:06:48.768Z,3.75
2019-05-30T12:09:18.935Z,4.65
2019-05-30T12:11:49.072Z,3.58
2019-05-30T12:14:21.351Z,4.20
2019-05-30T12:16:51.188Z,3.80
2019-05-30T12:19:21.369Z,5.15
2019-05-30T12:21:51.579Z,3.37
2019-05-30T12:24:21.723Z,5.92
2019-05-30T12:26:51.912Z,4.03
2019-05-30T12:29:22.099Z,5.20
2019-05-30T12:31:55.208Z,6.55
2019-05-30T12:34:24.076Z,4.15
2019-05-30T12:36:54.391Z,5.47
2019-05-30T12:39:24.635Z,3.58
2019-05-30T12:41:54.910Z,3.72
2019-05-30T12:44:25.029Z,4.33
2019-05-30T12:46:55.551Z,3.72
2019-05-30T12:49:25.816Z,5.30
2019-05-30T12:51:56.207Z,4.25
2019-05-30T12:54:26.575Z,5.37
2019-05-30T12:56:56.721Z,3.72
2019-05-30T12:59:26.845Z,4.00
2019-05-30T13:01:56.977Z,4.15
2019-05-30T13:04:28.280Z,8.43
2019-05-30T13:06:59.373Z,5.15
2019-05-30T13:09:29.796Z,5.80
2019-05-30T13:12:00.562Z,5.78
2019-05-30T13:14:30.938Z,6.35
2019-05-30T13:17:01.856Z,5.37
2019-05-30T13:19:33.010Z,3.62
2019-05-30T13:22:03.490Z,5.90
2019-05-30T13:24:34.828Z,4.00
2019-05-30T13:27:05.933Z,2.98
2019-05-30T13:29:36.459Z,3.90
2019-05-30T13:32:06.729Z,5.33
2019-05-30T13:34:38.022Z,7.00
2019-05-30T13:37:08.123Z,7.12
2019-05-30T13:39:38.218Z,5.45
2019-05-30T13:42:08.267Z,7.40
2019-05-30T13:44:38.293Z,5.85
2019-05-30T13:47:08.862Z,4.42
2019-05-30T13:49:39.249Z,3.08
2019-05-30T13:52:09.414Z,3.40
2019-05-30T13:54:40.650Z,6.60
2019-05-30T13:57:10.829Z,4.45
2019-05-30T13:59:40.883Z,5.97
2019-05-30T14:02:11.018Z,3.75
2019-05-30T14:04:41.183Z,4.17
2019-05-30T14:07:11.390Z,3.10
2019-05-30T14:09:42.554Z,10.85
2019-05-30T14:12:12.698Z,4.08
2019-05-30T14:14:43.846Z,3.95
2019-05-30T14:17:15.012Z,4.60
2019-05-30T14:19:45.059Z,5.35
2019-05-30T14:22:15.147Z,5.92
2019-05-30T14:24:45.311Z,6.20
2019-05-30T14:27:15.499Z,5.42
2019-05-30T14:29:45.856Z,3.22
2019-05-30T14:32:16.107Z,4.72
2019-05-30T14:34:46.160Z,4.62
2019-05-30T14:37:16.340Z,6.15
2019-05-30T14:39:46.399Z,4.55
2019-05-30T14:42:16.560Z,4.60
2019-05-30T14:44:46.698Z,3.45
2019-05-30T14:47:17.006Z,4.00
2019-05-30T14:49:47.323Z,3.92
2019-05-30T14:52:17.355Z,3.98
2019-05-30T14:54:47.450Z,4.22
2019-05-30T14:57:17.702Z,4.00
2019-05-30T14:59:47.797Z,5.37
2019-05-30T15:02:17.943Z,5.45
2019-05-30T15:04:48.067Z,5.17
2019-05-30T15:07:18.146Z,5.17
2019-05-30T15:09:48.160Z,3.87
2019-05-30T15:12:18.324Z,3.52
2019-05-30T15:14:48.495Z,6.80
2019-05-30T15:17:18.664Z,4.08
2019-05-30T15:19:48.927Z,4.20
2019-05-30T15:22:19.196Z,3.45
2019-05-30T15:24:49.264Z,5.00
2019-05-30T15:27:20.772Z,5.00
2019-05-30T15:29:50.994Z,3.20
2019-05-30T15:32:21.080Z,4.40
2019-05-30T15:34:51.107Z,3.50
2019-05-30T15:37:21.204Z,6.03
2019-05-30T15:39:51.289Z,5.12
2019-05-30T15:42:21.392Z,4.85
2019-05-30T15:44:51.580Z,5.28
2019-05-30T15:47:21.851Z,3.77
2019-05-30T15:49:52.532Z,9.53
2019-05-30T15:52:22.865Z,6.33
2019-05-30T15:54:52.925Z,5.17
2019-05-30T15:57:23.052Z,3.85
2019-05-30T15:59:53.277Z,4.70
2019-05-30T16:02:23.324Z,6.87
2019-05-30T16:04:53.351Z,4.62
2019-05-30T16:07:23.483Z,4.65
2019-05-30T16:09:53.579Z,5.72
2019-05-30T16:12:23.627Z,5.10
2019-05-30T16:14:53.743Z,4.22
2019-05-30T16:17:23.811Z,5.42
2019-05-30T16:19:53.839Z,3.75
2019-05-30T16:22:23.921Z,4.92
2019-05-30T16:24:53.962Z,4.78
2019-05-30T16:27:26.087Z,4.65
2019-05-30T16:29:56.254Z,5.20
2019-05-30T16:32:26.330Z,4.25
2019-05-30T16:34:56.376Z,4.10
2019-05-30T16:37:26.487Z,5.65
2019-05-30T16:40:05.845Z,4.03
2019-05-30T16:42:28.416Z,4.67
2019-05-30T16:44:58.464Z,3.98
2019-05-30T16:47:28.623Z,5.50
2019-05-30T16:49:58.967Z,5.87
2019-05-30T16:52:29.136Z,4.70
2019-05-30T16:54:59.347Z,4.53
2019-05-30T16:57:29.560Z,4.37
2019-05-30T16:59:59.745Z,5.95
2019-05-30T17:02:30.135Z,6.83
2019-05-30T17:05:00.353Z,5.08
2019-05-30T17:07:30.625Z,5.00
2019-05-30T17:10:00.694Z,4.78
2019-05-30T17:12:30.714Z,4.08
2019-05-30T17:15:00.958Z,7.37
2019-05-30T17:17:32.361Z,6.33
2019-05-30T17:20:02.573Z,5.95
2019-05-30T17:22:32.696Z,4.90
2019-05-30T17:25:03.031Z,4.60
2019-05-30T17:27:33.347Z,5.47
2019-05-30T17:30:03.502Z,7.25
2019-05-30T17:32:34.630Z,4.00
2019-05-30T17:35:05.518Z,4.00
2019-05-30T17:37:35.575Z,4.95
2019-05-30T17:40:06.559Z,6.87
2019-05-30T17:42:36.788Z,6.47
2019-05-30T17:45:08.236Z,6.75
2019-05-30T17:47:38.388Z,5.30
2019-05-30T17:50:09.428Z,4.58
2019-05-30T17:52:40.526Z,6.42
2019-05-30T17:55:11.753Z,3.95
2019-05-30T17:57:42.099Z,4.58
2019-05-30T18:00:14.573Z,7.85
2019-05-30T18:02:44.764Z,5.15
2019-05-30T18:05:15.332Z,5.50
2019-05-30T18:07:46.347Z,5.90
2019-05-30T18:10:17.351Z,3.80
2019-05-30T18:12:47.370Z,4.75
2019-05-30T18:15:19.231Z,4.00
2019-05-30T18:17:49.378Z,4.67
2019-05-30T18:20:21.163Z,4.53
2019-05-30T18:22:51.308Z,4.67
2019-05-30T18:25:21.617Z,6.35
2019-05-30T18:27:51.795Z,5.05
2019-05-30T18:30:25.886Z,3.35
2019-05-30T18:32:56.020Z,3.58
2019-05-30T18:35:26.307Z,4.12
2019-05-30T18:37:56.622Z,4.20
2019-05-30T18:40:33.219Z,5.08
2019-05-30T18:43:04.027Z,7.22
2019-05-30T18:45:41.411Z,4.78
2019-05-30T18:48:11.928Z,4.12
2019-05-30T18:50:42.265Z,5.17
2019-05-30T18:53:12.431Z,6.50
2019-05-30T18:55:42.586Z,3.67
2019-05-30T18:58:12.694Z,5.45
2019-05-30T19:00:42.807Z,4.28
2019-05-30T19:03:12.850Z,4.17
2019-05-30T19:05:42.949Z,3.67
2019-05-30T19:08:13.105Z,5.42
2019-05-30T19:10:43.248Z,11.00
2019-05-30T19:13:13.338Z,5.60
2019-05-30T19:15:43.568Z,5.72
2019-05-30T19:18:13.599Z,3.98
2019-05-30T19:20:43.693Z,4.85
2019-05-30T19:23:13.919Z,4.20
2019-05-30T19:25:44.491Z,3.30
2019-05-30T19:28:14.655Z,4.40
2019-05-30T19:30:44.690Z,3.72
2019-05-30T19:33:14.797Z,4.08
2019-05-30T19:35:44.842Z,4.08
2019-05-30T19:38:14.891Z,3.70
2019-05-30T19:40:45.039Z,6.80
2019-05-30T19:43:15.274Z,4.00
2019-05-30T19:45:45.403Z,5.65
2019-05-30T19:48:15.408Z,4.30
2019-05-30T19:50:45.434Z,3.70
2019-05-30T19:53:15.429Z,4.75
2019-05-30T19:55:45.451Z,4.47
2019-05-30T19:58:15.474Z,3.90
2019-05-30T20:00:57.852Z,6.37
2019-05-30T20:03:17.277Z,5.37
2019-05-30T20:05:47.371Z,3.60
2019-05-30T20:08:18.350Z,6.45
2019-05-30T20:10:48.360Z,4.37
2019-05-30T20:13:18.420Z,5.42
2019-05-30T20:15:48.447Z,5.95
2019-05-30T20:18:18.455Z,5.22
2019-05-30T20:20:57.263Z,4.42
2019-05-30T20:23:20.203Z,3.52
2019-05-30T20:25:50.254Z,4.85
2019-05-30T20:28:20.349Z,5.70
2019-05-30T20:30:50.398Z,4.05
2019-05-30T20:33:20.405Z,4.92
2019-05-30T20:35:50.474Z,5.70
2019-05-30T20:38:20.483Z,4.67
2019-05-30T20:40:50.478Z,3.60
2019-05-30T20:43:20.521Z,5.67
2019-05-30T20:45:50.692Z,5.00
2019-05-30T20:48:20.720Z,6.75
2019-05-30T20:50:50.707Z,4.45
2019-05-30T20:53:20.738Z,5.15
2019-05-30T20:55:50.780Z,4.42
2019-05-30T20:58:20.815Z,3.70
2019-05-30T21:00:50.874Z,3.30
2019-05-30T21:03:20.963Z,4.12
2019-05-30T21:05:51.671Z,5.33
2019-05-30T21:08:22.569Z,4.22
2019-05-30T21:10:54.463Z,4.33
2019-05-30T21:13:25.076Z,3.65
2019-05-30T21:15:59.054Z,4.30
2019-05-30T21:18:30.112Z,5.55
2019-05-30T21:21:00.124Z,3.47
2019-05-30T21:23:30.140Z,3.62
2019-05-30T21:26:00.234Z,3.77
2019-05-30T21:28:30.347Z,5.25
2019-05-30T21:31:00.344Z,5.17
2019-05-30T21:33:30.513Z,5.05
2019-05-30T21:36:00.500Z,3.65
2019-05-30T21:38:30.706Z,3.52
2019-05-30T21:41:00.732Z,4.08
2019-05-30T21:43:30.828Z,4.50
2019-05-30T21:46:00.816Z,4.33
2019-05-30T21:48:30.912Z,6.85
2019-05-30T21:51:00.971Z,4.65
2019-05-30T21:53:30.971Z,5.65
2019-05-30T21:56:01.796Z,3.65
2019-05-30T21:58:31.915Z,4.37
2019-05-30T22:01:31.999Z,4.05
2019-05-30T22:04:02.788Z,4.92
2019-05-30T22:06:33.055Z,5.70
2019-05-30T22:09:04.521Z,5.35
2019-05-30T22:11:34.653Z,3.80
2019-05-30T22:14:04.800Z,4.55
2019-05-30T22:16:34.802Z,4.87
2019-05-30T22:19:05.507Z,3.33
2019-05-30T22:21:35.499Z,5.35
2019-05-30T22:24:05.786Z,4.67
2019-05-30T22:26:35.805Z,4.67
2019-05-30T22:29:05.836Z,3.85
2019-05-30T22:31:35.830Z,5.70
2019-05-30T22:34:06.207Z,5.70
2019-05-30T22:36:36.207Z,4.62
2019-05-30T22:39:08.903Z,5.40
2019-05-30T22:41:39.224Z,3.85
2019-05-30T22:44:09.316Z,3.62
2019-05-30T22:46:39.302Z,4.45
2019-05-30T22:49:09.326Z,4.62
2019-05-30T22:51:39.336Z,5.92
2019-05-30T22:54:09.412Z,5.37
2019-05-30T22:56:39.399Z,3.72
2019-05-30T22:59:09.483Z,3.80
2019-05-30T23:01:39.606Z,6.33
2019-05-30T23:04:09.583Z,4.20
2019-05-30T23:06:39.600Z,3.42
2019-05-30T23:09:09.623Z,6.12
2019-05-30T23:11:39.643Z,5.00
2019-05-30T23:14:10.722Z,4.00
2019-05-30T23:16:40.781Z,3.42
2019-05-30T23:19:10.773Z,4.20
2019-05-30T23:21:40.791Z,4.60
2019-05-30T23:24:10.784Z,3.77
2019-05-30T23:26:40.824Z,5.55
2019-05-30T23:29:10.838Z,3.80
2019-05-30T23:31:40.882Z,5.30
2019-05-30T23:34:10.872Z,4.20
2019-05-30T23:36:40.903Z,3.70
2019-05-30T23:39:10.927Z,3.55
2019-05-30T23:41:40.998Z,5.35
2019-05-30T23:44:12.077Z,3.60
2019-05-30T23:46:42.371Z,5.10
2019-05-30T23:49:12.363Z,6.20
2019-05-30T23:51:42.376Z,4.10
2019-05-30T23:54:12.436Z,5.05
2019-05-30T23:56:42.634Z,5.67
2019-05-30T23:59:12.722Z,4.37
